Pine Canyon, Utah
Current Conditions -  °F | °C
As of 6:53 AM on Wednesday 26 Nov 2014 (Local Time) from KSLC Reporting Station
Few Clouds Few Clouds  
Wind Chill: -1°   Ceiling: Unl
Heat Index:   Visibility: 10mi
Dew Point: -3°   Wind: 10mph
Humidity: 65%   Direction: 110°ESE
Pressure: 30.36"   Gusts: NA
Location:  40.5393°N, 112.353°W
Report Text: KSLC 261353Z 11009KT 10SM FEW065 FEW200 03/M03 A3036 RMK AO2 SLP281 T00331028
Loading
Personal Weather Stations






























Interactive Weather Map New forecast layout! Learn more

10-Day Weather Forecast

Advertisements
Track Severe Weather on mobile